createdAt,value
2023-02-21T00:00:31.292Z,8.40
2023-02-21T00:01:31.295Z,7.10
2023-02-21T00:02:31.309Z,7.60
2023-02-21T00:03:31.278Z,7.20
2023-02-21T00:04:31.264Z,8.10
2023-02-21T00:05:31.296Z,7.50
2023-02-21T00:06:31.236Z,8.40
2023-02-21T00:07:31.222Z,7.90
2023-02-21T00:08:31.267Z,8.30
2023-02-21T00:09:31.206Z,7.10
2023-02-21T00:10:31.182Z,7.90
2023-02-21T00:11:31.195Z,8.10
2023-02-21T00:12:31.170Z,7.50
2023-02-21T00:13:31.211Z,8.50
2023-02-21T00:14:31.177Z,8.60
2023-02-21T00:15:31.161Z,8.70
2023-02-21T00:16:31.157Z,9.00
2023-02-21T00:17:31.143Z,8.90
2023-02-21T00:18:31.124Z,7.90
2023-02-21T00:19:31.097Z,8.10
2023-02-21T00:20:31.090Z,8.10
2023-02-21T00:21:31.069Z,9.00
2023-02-21T00:22:31.082Z,8.50
2023-02-21T00:23:31.076Z,7.30
2023-02-21T00:24:31.056Z,8.10
2023-02-21T00:25:31.032Z,8.60
2023-02-21T00:26:31.024Z,7.70
2023-02-21T00:27:31.022Z,8.60
2023-02-21T00:28:31.005Z,7.50
2023-02-21T00:29:31.010Z,8.80
2023-02-21T00:30:31.092Z,7.80
2023-02-21T00:31:31.047Z,8.00
2023-02-21T00:32:30.984Z,7.70
2023-02-21T00:33:31.041Z,7.60
2023-02-21T00:34:30.942Z,8.10
2023-02-21T00:35:30.946Z,7.90
2023-02-21T00:36:30.917Z,8.10
2023-02-21T00:37:30.893Z,7.80
2023-02-21T00:38:30.925Z,7.90
2023-02-21T00:39:30.873Z,7.30
2023-02-21T00:40:30.877Z,8.50
2023-02-21T00:41:30.854Z,7.30
2023-02-21T00:42:30.842Z,7.60
2023-02-21T00:43:30.886Z,7.90
2023-02-21T00:44:30.829Z,8.10
2023-02-21T00:45:30.841Z,7.60
2023-02-21T00:46:30.793Z,8.50
2023-02-21T00:47:30.779Z,7.80
2023-02-21T00:48:30.785Z,7.60
2023-02-21T00:49:30.769Z,7.90
2023-02-21T00:50:30.757Z,7.60
2023-02-21T00:51:30.754Z,7.20
2023-02-21T00:52:30.740Z,7.90
2023-02-21T00:53:30.729Z,7.30
2023-02-21T00:54:30.702Z,8.00
2023-02-21T00:55:30.709Z,7.70
2023-02-21T00:56:30.697Z,7.60
2023-02-21T00:57:30.662Z,7.50
2023-02-21T00:58:30.699Z,7.60
2023-02-21T00:59:30.644Z,7.60
2023-02-21T01:00:30.643Z,7.10
2023-02-21T01:01:30.656Z,7.70
2023-02-21T01:02:30.631Z,8.00
2023-02-21T01:03:30.628Z,8.50
2023-02-21T01:04:30.601Z,7.70
2023-02-21T01:05:30.604Z,7.80
2023-02-21T01:06:30.579Z,8.20
2023-02-21T01:07:30.579Z,7.80
2023-02-21T01:08:30.577Z,8.00
2023-02-21T01:09:30.552Z,8.30
2023-02-21T01:10:30.533Z,8.40
2023-02-21T01:11:30.534Z,7.50
2023-02-21T01:12:30.523Z,9.20
2023-02-21T01:13:30.524Z,8.90
2023-02-21T01:14:30.498Z,7.60
2023-02-21T01:15:30.523Z,8.30
2023-02-21T01:16:30.482Z,7.80
2023-02-21T01:17:30.493Z,8.50
2023-02-21T01:18:30.475Z,8.10
2023-02-21T01:19:30.459Z,7.80
2023-02-21T01:20:30.438Z,8.00
2023-02-21T01:21:30.410Z,8.20
2023-02-21T01:22:30.413Z,8.60
2023-02-21T01:23:30.394Z,7.80
2023-02-21T01:24:30.393Z,7.60
2023-02-21T01:25:30.387Z,7.80
2023-02-21T01:26:30.397Z,7.70
2023-02-21T01:27:30.358Z,8.00
2023-02-21T01:28:30.367Z,8.30
2023-02-21T01:29:30.356Z,8.00
2023-02-21T01:30:30.463Z,9.00
2023-02-21T01:31:30.411Z,7.90
2023-02-21T01:32:30.390Z,8.10
2023-02-21T01:33:30.331Z,10.10
2023-02-21T01:34:30.270Z,8.20
2023-02-21T01:35:30.279Z,9.10
2023-02-21T01:36:30.250Z,8.00
2023-02-21T01:37:30.253Z,8.10
2023-02-21T01:38:30.247Z,8.70
2023-02-21T01:39:30.281Z,8.40
2023-02-21T01:40:30.223Z,8.90
2023-02-21T01:41:30.196Z,8.90
2023-02-21T01:42:30.210Z,10.30
2023-02-21T01:43:30.191Z,11.20
2023-02-21T01:44:30.172Z,9.90
2023-02-21T01:45:30.175Z,10.40
2023-02-21T01:46:30.219Z,8.60
2023-02-21T01:47:30.144Z,7.60
2023-02-21T01:48:30.137Z,7.80
2023-02-21T01:49:30.156Z,7.90
2023-02-21T01:50:30.133Z,8.90
2023-02-21T01:51:30.113Z,8.40
2023-02-21T01:52:30.076Z,8.60
2023-02-21T01:53:30.113Z,8.40
2023-02-21T01:54:30.067Z,8.70
2023-02-21T01:55:30.059Z,8.90
2023-02-21T01:56:30.058Z,9.00
2023-02-21T01:57:30.017Z,8.80
2023-02-21T01:58:30.022Z,8.40
2023-02-21T01:59:30.030Z,8.20
2023-02-21T02:00:29.998Z,8.40
2023-02-21T02:01:30.011Z,9.90
2023-02-21T02:02:30.004Z,8.80
2023-02-21T02:03:29.962Z,9.90
2023-02-21T02:04:29.980Z,8.30
2023-02-21T02:05:29.957Z,9.20
2023-02-21T02:06:29.923Z,8.30
2023-02-21T02:07:29.953Z,9.10
2023-02-21T02:08:29.925Z,9.10
2023-02-21T02:09:29.888Z,9.30
2023-02-21T02:10:29.876Z,7.90
2023-02-21T02:11:29.883Z,8.60
2023-02-21T02:12:29.859Z,8.50
2023-02-21T02:13:29.860Z,9.20
2023-02-21T02:14:29.855Z,9.60
2023-02-21T02:15:29.833Z,8.70
2023-02-21T02:16:29.814Z,8.90
2023-02-21T02:17:29.821Z,11.40
2023-02-21T02:18:29.804Z,9.70
2023-02-21T02:19:29.815Z,10.30
2023-02-21T02:20:29.797Z,9.90
2023-02-21T02:21:29.784Z,10.60
2023-02-21T02:22:29.743Z,10.50
2023-02-21T02:23:29.731Z,9.80
2023-02-21T02:24:29.754Z,11.00
2023-02-21T02:25:29.732Z,10.30
2023-02-21T02:26:29.817Z,10.90
2023-02-21T02:27:29.716Z,11.20
2023-02-21T02:28:29.697Z,11.80
2023-02-21T02:29:29.678Z,11.10
2023-02-21T02:30:29.708Z,9.90
2023-02-21T02:31:29.766Z,10.70
2023-02-21T02:32:29.669Z,10.80
2023-02-21T02:33:29.627Z,11.50
2023-02-21T02:34:29.645Z,10.80
2023-02-21T02:35:29.615Z,10.30
2023-02-21T02:36:29.632Z,11.40
2023-02-21T02:37:29.603Z,10.90
2023-02-21T02:38:29.590Z,10.90
2023-02-21T02:39:29.566Z,10.70
2023-02-21T02:40:29.563Z,10.90
2023-02-21T02:41:29.558Z,10.20
2023-02-21T02:42:29.536Z,10.50
2023-02-21T02:43:29.518Z,9.80
2023-02-21T02:44:29.540Z,10.20
2023-02-21T02:45:29.508Z,10.30
2023-02-21T02:46:29.600Z,9.60
2023-02-21T02:47:29.473Z,10.30
2023-02-21T02:48:29.483Z,10.60
2023-02-21T02:49:29.469Z,10.20
2023-02-21T02:50:29.447Z,11.10
2023-02-21T02:51:29.450Z,9.80
2023-02-21T02:52:29.440Z,10.90
2023-02-21T02:53:29.456Z,10.70
2023-02-21T02:54:29.395Z,11.80
2023-02-21T02:55:29.387Z,10.20
2023-02-21T02:56:29.400Z,10.90
2023-02-21T02:57:29.389Z,10.20
2023-02-21T02:58:29.378Z,9.70
2023-02-21T02:59:29.369Z,8.00
2023-02-21T03:00:29.328Z,8.90
2023-02-21T03:01:29.350Z,7.20
2023-02-21T03:02:29.324Z,7.90
2023-02-21T03:03:29.329Z,7.90
2023-02-21T03:04:29.293Z,9.30
2023-02-21T03:05:29.306Z,8.00
2023-02-21T03:06:29.292Z,8.10
2023-02-21T03:07:29.260Z,8.90
2023-02-21T03:08:29.262Z,8.80
2023-02-21T03:09:29.256Z,8.20
2023-02-21T03:10:29.226Z,9.20
2023-02-21T03:11:29.203Z,8.40
2023-02-21T03:12:29.209Z,8.90
2023-02-21T03:13:29.181Z,8.00
2023-02-21T03:14:29.200Z,7.70
2023-02-21T03:15:29.201Z,8.60
2023-02-21T03:16:29.162Z,8.70
2023-02-21T03:17:29.170Z,8.30
2023-02-21T03:18:29.145Z,8.20
2023-02-21T03:19:29.133Z,9.70
2023-02-21T03:20:29.129Z,8.30
2023-02-21T03:21:29.118Z,7.50
2023-02-21T03:22:29.088Z,8.10
2023-02-21T03:23:29.101Z,8.30
2023-02-21T03:24:29.102Z,7.10
2023-02-21T03:25:29.091Z,8.90
2023-02-21T03:26:29.067Z,7.90
2023-02-21T03:27:29.060Z,8.60
2023-02-21T03:28:29.041Z,7.60
2023-02-21T03:29:29.021Z,8.80
2023-02-21T03:30:29.055Z,8.50
2023-02-21T03:31:29.100Z,6.80
2023-02-21T03:32:28.977Z,8.30
2023-02-21T03:33:28.979Z,8.30
2023-02-21T03:34:28.957Z,8.20
2023-02-21T03:35:28.948Z,7.50
2023-02-21T03:36:28.949Z,7.90
2023-02-21T03:37:28.948Z,9.00
2023-02-21T03:38:28.936Z,8.60
2023-02-21T03:39:28.902Z,8.60
2023-02-21T03:40:28.937Z,7.70
2023-02-21T03:41:28.917Z,8.30
2023-02-21T03:42:28.886Z,9.30
2023-02-21T03:43:28.886Z,9.00
2023-02-21T03:44:28.858Z,9.30
2023-02-21T03:45:28.860Z,9.00
2023-02-21T03:46:28.909Z,8.20
2023-02-21T03:47:28.818Z,8.40
2023-02-21T03:48:32.466Z,9.00
2023-02-21T03:49:28.843Z,9.40
2023-02-21T03:50:28.798Z,8.20
2023-02-21T03:51:28.810Z,7.80
2023-02-21T03:52:28.795Z,8.40
2023-02-21T03:53:28.771Z,8.20
2023-02-21T03:54:28.751Z,8.40
2023-02-21T03:55:28.778Z,9.50
2023-02-21T03:56:41.241Z,9.40
2023-02-21T03:57:29.737Z,10.50
2023-02-21T03:58:28.699Z,9.10
2023-02-21T03:59:28.753Z,9.30
2023-02-21T04:00:28.684Z,8.90
2023-02-21T04:01:28.688Z,9.90
2023-02-21T04:02:28.658Z,9.40
2023-02-21T04:03:28.655Z,8.60
2023-02-21T04:04:28.669Z,9.10
2023-02-21T04:05:28.633Z,9.20
2023-02-21T04:06:28.638Z,9.30
2023-02-21T04:07:28.675Z,9.30
2023-02-21T04:08:28.598Z,10.40
2023-02-21T04:09:28.584Z,9.40
2023-02-21T04:10:28.573Z,8.90
2023-02-21T04:11:28.573Z,9.60
2023-02-21T04:12:28.568Z,9.90
2023-02-21T04:13:28.574Z,9.00
2023-02-21T04:14:28.541Z,9.90
2023-02-21T04:15:28.531Z,8.10
2023-02-21T04:16:28.586Z,9.20
2023-02-21T04:17:28.528Z,9.10
2023-02-21T04:18:28.486Z,9.30
2023-02-21T04:19:28.473Z,9.30
2023-02-21T04:20:28.471Z,9.60
2023-02-21T04:21:28.778Z,9.60
2023-02-21T04:22:28.463Z,8.60
2023-02-21T04:23:28.473Z,9.00
2023-02-21T04:24:28.428Z,9.00
2023-02-21T04:25:28.424Z,8.90
2023-02-21T04:26:28.408Z,9.80
2023-02-21T04:27:28.393Z,9.20
2023-02-21T04:28:28.407Z,7.90
2023-02-21T04:29:28.396Z,9.10
2023-02-21T04:30:28.371Z,8.20
2023-02-21T04:31:28.483Z,8.70
2023-02-21T04:32:28.380Z,7.90
2023-02-21T04:33:28.345Z,9.20
2023-02-21T04:34:28.341Z,8.90
2023-02-21T04:35:28.311Z,9.00
2023-02-21T04:36:28.309Z,8.50
2023-02-21T04:37:28.302Z,9.60
2023-02-21T04:38:28.270Z,8.00
2023-02-21T04:39:28.264Z,9.00
2023-02-21T04:40:28.270Z,9.20
2023-02-21T04:41:28.250Z,9.00
2023-02-21T04:42:28.238Z,8.10
2023-02-21T04:43:28.230Z,8.20
2023-02-21T04:44:28.204Z,9.00
2023-02-21T04:45:28.270Z,8.70
2023-02-21T04:46:28.216Z,9.20
2023-02-21T04:47:28.194Z,9.10
2023-02-21T04:48:28.165Z,8.50
2023-02-21T04:49:28.152Z,8.50
2023-02-21T04:50:28.178Z,8.20
2023-02-21T04:51:28.138Z,8.00
2023-02-21T04:52:28.131Z,8.90
2023-02-21T04:53:28.109Z,9.40
2023-02-21T04:54:28.092Z,8.90
2023-02-21T04:55:28.084Z,8.10
2023-02-21T04:56:28.230Z,9.00
2023-02-21T04:57:28.066Z,9.20
2023-02-21T04:58:31.180Z,8.50
2023-02-21T04:59:29.052Z,8.40
2023-02-21T05:00:28.026Z,8.40
2023-02-21T05:01:28.172Z,7.60
2023-02-21T05:02:28.010Z,9.50
2023-02-21T05:03:28.011Z,8.50
2023-02-21T05:04:28.029Z,9.60
2023-02-21T05:05:27.971Z,8.10
2023-02-21T05:06:27.976Z,9.70
2023-02-21T05:07:27.987Z,9.10
2023-02-21T05:08:28.811Z,9.60
2023-02-21T05:09:27.976Z,9.60
2023-02-21T05:10:40.115Z,8.40
2023-02-21T05:11:28.931Z,9.40
2023-02-21T05:12:27.925Z,10.10
2023-02-21T05:13:27.898Z,8.70
2023-02-21T05:14:27.902Z,8.50
2023-02-21T05:15:27.876Z,8.60
2023-02-21T05:16:27.897Z,9.90
2023-02-21T05:17:27.893Z,9.00
2023-02-21T05:18:27.840Z,10.10
2023-02-21T05:19:27.860Z,8.50
2023-02-21T05:20:27.910Z,8.90
2023-02-21T05:21:27.817Z,8.00
2023-02-21T05:22:27.807Z,8.90
2023-02-21T05:23:27.795Z,9.10
2023-02-21T05:24:27.792Z,8.60
2023-02-21T05:25:27.847Z,8.60
2023-02-21T05:26:27.760Z,8.70
2023-02-21T05:27:27.749Z,8.30
2023-02-21T05:28:27.739Z,9.50
2023-02-21T05:29:27.746Z,8.50
2023-02-21T05:30:27.848Z,9.00
2023-02-21T05:31:27.726Z,8.50
2023-02-21T05:32:27.742Z,8.10
2023-02-21T05:33:27.726Z,8.30
2023-02-21T05:34:27.664Z,8.00
2023-02-21T05:35:27.659Z,9.60
2023-02-21T05:36:27.663Z,7.70
2023-02-21T05:37:29.341Z,7.70
2023-02-21T05:38:27.667Z,7.50
2023-02-21T05:39:27.726Z,7.40
2023-02-21T05:40:27.605Z,7.50
2023-02-21T05:41:27.599Z,8.00
2023-02-21T05:42:27.590Z,7.50
2023-02-21T05:43:29.149Z,8.80
2023-02-21T05:44:27.548Z,8.20
2023-02-21T05:45:27.542Z,7.50
2023-02-21T05:46:27.546Z,7.80
2023-02-21T05:47:27.526Z,7.60
2023-02-21T05:48:27.509Z,8.40
2023-02-21T05:49:27.688Z,8.50
2023-02-21T05:50:27.493Z,8.90
2023-02-21T05:51:27.470Z,8.50
2023-02-21T05:52:27.469Z,8.40
2023-02-21T05:53:27.471Z,8.10
2023-02-21T05:54:27.444Z,8.30
2023-02-21T05:55:27.439Z,7.50
2023-02-21T05:56:27.463Z,8.90
2023-02-21T05:57:27.412Z,7.30
2023-02-21T05:58:27.393Z,7.50
2023-02-21T05:59:27.396Z,7.10
2023-02-21T06:00:27.368Z,9.50
2023-02-21T06:01:27.436Z,8.40
2023-02-21T06:02:27.447Z,8.40
2023-02-21T06:03:27.395Z,7.90
2023-02-21T06:04:27.334Z,8.30
2023-02-21T06:05:27.331Z,8.30
2023-02-21T06:06:27.329Z,7.70
2023-02-21T06:07:27.367Z,8.20
2023-02-21T06:08:27.301Z,7.30
2023-02-21T06:09:27.278Z,8.10
2023-02-21T06:10:27.284Z,8.00
2023-02-21T06:11:27.272Z,7.90
2023-02-21T06:12:27.313Z,7.90
2023-02-21T06:13:27.237Z,8.20
2023-02-21T06:14:27.220Z,7.90
2023-02-21T06:15:27.243Z,7.60
2023-02-21T06:16:27.224Z,6.90
2023-02-21T06:17:27.250Z,7.30
2023-02-21T06:18:27.192Z,7.10
2023-02-21T06:19:27.158Z,7.00
2023-02-21T06:20:27.168Z,7.90
2023-02-21T06:21:27.255Z,7.90
2023-02-21T06:22:27.141Z,6.90
2023-02-21T06:23:27.126Z,7.50
2023-02-21T06:24:27.114Z,7.50
2023-02-21T06:25:27.106Z,7.00
2023-02-21T06:26:27.100Z,6.10
2023-02-21T06:27:27.084Z,7.70
2023-02-21T06:28:27.272Z,7.80
2023-02-21T06:29:27.089Z,8.10
2023-02-21T06:30:27.064Z,7.10
2023-02-21T06:31:27.093Z,7.50
2023-02-21T06:32:27.043Z,7.00
2023-02-21T06:33:27.027Z,7.10
2023-02-21T06:34:27.019Z,7.70
2023-02-21T06:35:27.024Z,7.40
2023-02-21T06:36:26.987Z,6.80
2023-02-21T06:37:27.008Z,7.20
2023-02-21T06:38:26.947Z,7.30
2023-02-21T06:39:26.971Z,8.20
2023-02-21T06:40:26.967Z,5.80
2023-02-21T06:41:26.937Z,7.40
2023-02-21T06:42:26.958Z,8.10
2023-02-21T06:43:26.929Z,7.90
2023-02-21T06:44:26.889Z,6.90
2023-02-21T06:45:26.905Z,7.00
2023-02-21T06:46:26.917Z,7.30
2023-02-21T06:47:26.870Z,7.20
2023-02-21T06:48:26.864Z,8.70
2023-02-21T06:49:26.844Z,8.90
2023-02-21T06:50:26.852Z,7.90
2023-02-21T06:51:26.813Z,8.10
2023-02-21T06:52:26.803Z,7.60
2023-02-21T06:53:26.840Z,7.00
2023-02-21T06:54:26.812Z,7.10
2023-02-21T06:55:26.785Z,7.30
2023-02-21T06:56:26.822Z,6.50
2023-02-21T06:57:26.817Z,8.20
2023-02-21T06:58:26.743Z,8.60
2023-02-21T06:59:26.754Z,8.30
2023-02-21T07:00:26.738Z,8.30
2023-02-21T07:01:26.762Z,8.70
2023-02-21T07:02:26.704Z,7.30
2023-02-21T07:03:26.681Z,7.80
2023-02-21T07:04:26.763Z,7.40
2023-02-21T07:05:26.678Z,7.90
2023-02-21T07:06:29.269Z,7.90
2023-02-21T07:07:26.662Z,8.00
2023-02-21T07:08:26.668Z,7.50
2023-02-21T07:09:26.660Z,7.60
2023-02-21T07:10:26.623Z,7.90
2023-02-21T07:11:26.623Z,7.70
2023-02-21T07:12:26.597Z,7.30
2023-02-21T07:13:26.601Z,7.40
2023-02-21T07:14:26.586Z,6.90
2023-02-21T07:15:26.561Z,7.60
2023-02-21T07:16:26.560Z,7.80
2023-02-21T07:17:26.537Z,7.80
2023-02-21T07:18:26.561Z,7.70
2023-02-21T07:19:26.517Z,7.50
2023-02-21T07:20:26.529Z,7.90
2023-02-21T07:21:26.505Z,7.70
2023-02-21T07:22:26.507Z,8.30
2023-02-21T07:23:26.474Z,8.20
2023-02-21T07:24:26.520Z,8.40
2023-02-21T07:25:26.461Z,8.20
2023-02-21T07:26:26.432Z,7.60
2023-02-21T07:27:26.441Z,8.30
2023-02-21T07:28:26.410Z,8.40
2023-02-21T07:29:26.492Z,8.20
2023-02-21T07:30:26.470Z,8.40
2023-02-21T07:31:26.400Z,7.40
2023-02-21T07:32:26.385Z,6.90
2023-02-21T07:33:26.362Z,6.30
2023-02-21T07:34:26.369Z,7.40
2023-02-21T07:35:26.344Z,8.30
2023-02-21T07:36:26.323Z,7.50
2023-02-21T07:37:26.335Z,7.30
2023-02-21T07:38:26.309Z,8.30
2023-02-21T07:39:26.779Z,8.70
2023-02-21T07:40:26.293Z,8.20
2023-02-21T07:41:26.337Z,7.10
2023-02-21T07:42:26.263Z,7.30
2023-02-21T07:43:26.238Z,7.60
2023-02-21T07:44:26.254Z,8.00
2023-02-21T07:45:26.236Z,8.00
2023-02-21T07:46:26.298Z,7.80
2023-02-21T07:47:26.218Z,7.60
2023-02-21T07:48:26.203Z,8.20
2023-02-21T07:49:26.192Z,7.40
2023-02-21T07:50:26.174Z,9.00
2023-02-21T07:51:26.151Z,8.10
2023-02-21T07:52:26.167Z,8.40
2023-02-21T07:53:26.172Z,7.60
2023-02-21T07:54:26.127Z,8.10
2023-02-21T07:55:26.118Z,8.30
2023-02-21T07:56:26.126Z,8.30
2023-02-21T07:57:26.130Z,7.60
2023-02-21T07:58:26.089Z,8.50
2023-02-21T07:59:26.083Z,7.50
2023-02-21T08:00:26.074Z,7.00
2023-02-21T08:01:26.115Z,7.50
2023-02-21T08:02:26.093Z,7.90
2023-02-21T08:03:26.023Z,6.80
2023-02-21T08:04:26.088Z,6.90
2023-02-21T08:05:26.038Z,7.40
2023-02-21T08:06:26.048Z,7.40
2023-02-21T08:07:26.010Z,7.30
2023-02-21T08:08:25.995Z,8.00
2023-02-21T08:09:25.964Z,7.90
2023-02-21T08:10:26.046Z,8.90
2023-02-21T08:11:25.945Z,9.80
2023-02-21T08:12:25.926Z,9.30
2023-02-21T08:13:25.954Z,9.40
2023-02-21T08:14:26.088Z,8.00
2023-02-21T08:15:25.926Z,8.90
2023-02-21T08:16:26.003Z,8.20
2023-02-21T08:17:25.902Z,10.00
2023-02-21T08:18:25.878Z,9.00
2023-02-21T08:19:25.868Z,9.00
2023-02-21T08:20:25.881Z,9.20
2023-02-21T08:21:25.826Z,9.20
2023-02-21T08:22:25.830Z,9.00
2023-02-21T08:23:25.807Z,9.00
2023-02-21T08:24:25.832Z,8.20
2023-02-21T08:25:25.853Z,9.00
2023-02-21T08:26:25.799Z,8.90
2023-02-21T08:27:25.778Z,8.60
2023-02-21T08:28:25.764Z,10.10
2023-02-21T08:29:25.773Z,8.70
2023-02-21T08:30:25.910Z,9.10
2023-02-21T08:31:25.797Z,8.80
2023-02-21T08:32:25.755Z,7.60
2023-02-21T08:33:25.747Z,8.70
2023-02-21T08:34:25.715Z,8.50
2023-02-21T08:35:25.684Z,8.00
2023-02-21T08:36:25.686Z,8.10
2023-02-21T08:37:25.656Z,8.40
2023-02-21T08:38:25.632Z,8.30
2023-02-21T08:39:25.646Z,8.90
2023-02-21T08:40:25.645Z,8.40
2023-02-21T08:41:25.615Z,8.10
2023-02-21T08:42:25.628Z,9.30
2023-02-21T08:43:25.599Z,8.90
2023-02-21T08:44:25.591Z,9.30
2023-02-21T08:45:25.600Z,8.90
2023-02-21T08:46:25.583Z,8.10
2023-02-21T08:47:25.554Z,8.60
2023-02-21T08:48:25.529Z,7.80
2023-02-21T08:49:25.531Z,9.50
2023-02-21T08:50:25.634Z,9.30
2023-02-21T08:51:25.509Z,8.70
2023-02-21T08:52:25.504Z,9.20
2023-02-21T08:53:25.518Z,8.50
2023-02-21T08:54:25.474Z,8.70
2023-02-21T08:55:25.480Z,7.80
2023-02-21T08:56:25.448Z,8.40
2023-02-21T08:57:25.454Z,8.10
2023-02-21T08:58:25.424Z,8.90
2023-02-21T08:59:25.476Z,8.00
2023-02-21T09:00:25.424Z,7.90
2023-02-21T09:01:25.462Z,8.00
2023-02-21T09:02:25.487Z,7.90
2023-02-21T09:03:25.393Z,8.10
2023-02-21T09:04:25.425Z,8.00
2023-02-21T09:05:25.365Z,7.70
2023-02-21T09:06:25.371Z,8.80
2023-02-21T09:07:25.338Z,7.70
2023-02-21T09:08:25.328Z,7.40
2023-02-21T09:09:25.320Z,7.90
2023-02-21T09:10:25.422Z,7.50
2023-02-21T09:11:25.284Z,7.50
2023-02-21T09:12:25.266Z,8.20
2023-02-21T09:13:25.289Z,8.40
2023-02-21T09:14:25.255Z,8.10
2023-02-21T09:15:25.234Z,7.70
2023-02-21T09:16:25.279Z,7.70
2023-02-21T09:17:25.242Z,7.60
2023-02-21T09:18:25.207Z,7.60
2023-02-21T09:19:25.206Z,7.00
2023-02-21T09:20:25.184Z,7.20
2023-02-21T09:21:25.183Z,7.90
2023-02-21T09:22:25.184Z,7.70
2023-02-21T09:23:25.171Z,7.70
2023-02-21T09:24:25.162Z,7.10
2023-02-21T09:25:25.174Z,7.50
2023-02-21T09:26:25.123Z,6.70
2023-02-21T09:27:25.147Z,7.20
2023-02-21T09:28:25.124Z,7.70
2023-02-21T09:29:29.504Z,6.80
2023-02-21T09:30:26.387Z,7.90
2023-02-21T09:31:25.123Z,8.00
2023-02-21T09:32:25.143Z,7.40
2023-02-21T09:33:25.416Z,7.60
2023-02-21T09:34:25.042Z,7.10
2023-02-21T09:35:25.042Z,7.20
2023-02-21T09:36:25.013Z,7.90
2023-02-21T09:37:25.027Z,7.50
2023-02-21T09:38:25.007Z,7.30
2023-02-21T09:39:25.000Z,8.10
2023-02-21T09:40:24.975Z,7.10
2023-02-21T09:41:24.976Z,7.20
2023-02-21T09:42:24.967Z,6.80
2023-02-21T09:43:24.934Z,7.00
2023-02-21T09:44:24.941Z,6.90
2023-02-21T09:45:24.923Z,7.30
2023-02-21T09:46:24.891Z,7.30
2023-02-21T09:47:24.969Z,6.80
2023-02-21T09:48:24.879Z,8.20
2023-02-21T09:49:24.938Z,7.80
2023-02-21T09:50:24.854Z,7.70
2023-02-21T09:51:24.866Z,7.40
2023-02-21T09:52:24.847Z,8.00
2023-02-21T09:53:24.856Z,7.30
2023-02-21T09:54:24.807Z,7.60
2023-02-21T09:55:24.800Z,7.50
2023-02-21T09:56:24.842Z,8.30
2023-02-21T09:57:24.785Z,7.50
2023-02-21T09:58:24.810Z,7.50
2023-02-21T09:59:24.747Z,8.20
2023-02-21T10:00:24.751Z,6.60
2023-02-21T10:01:24.849Z,8.10
2023-02-21T10:02:24.736Z,7.50
2023-02-21T10:03:24.702Z,7.80
2023-02-21T10:04:24.733Z,8.50
2023-02-21T10:05:24.709Z,7.80
2023-02-21T10:06:24.687Z,7.70
2023-02-21T10:07:24.669Z,8.60
2023-02-21T10:08:24.640Z,8.50
2023-02-21T10:09:24.645Z,8.40
2023-02-21T10:10:24.673Z,8.40
2023-02-21T10:11:24.645Z,7.70
2023-02-21T10:12:24.630Z,8.40
2023-02-21T10:13:24.604Z,9.00
2023-02-21T10:14:24.580Z,9.30
2023-02-21T10:15:24.568Z,7.70
2023-02-21T10:16:24.648Z,9.40
2023-02-21T10:17:24.570Z,9.00
2023-02-21T10:18:24.552Z,8.20
2023-02-21T10:19:24.572Z,7.60
2023-02-21T10:20:24.537Z,8.30
2023-02-21T10:21:24.589Z,7.70
2023-02-21T10:22:24.506Z,6.80
2023-02-21T10:23:24.481Z,7.40
2023-02-21T10:24:24.481Z,7.00
2023-02-21T10:25:24.476Z,7.60
2023-02-21T10:26:24.482Z,7.00
2023-02-21T10:27:24.450Z,7.90
2023-02-21T10:28:25.252Z,7.30
2023-02-21T10:29:24.448Z,7.50
2023-02-21T10:30:24.527Z,7.40
2023-02-21T10:31:24.569Z,7.00
2023-02-21T10:32:24.392Z,7.80
2023-02-21T10:33:24.369Z,7.30
2023-02-21T10:34:24.350Z,7.10
2023-02-21T10:35:24.365Z,7.20
2023-02-21T10:36:24.363Z,6.80
2023-02-21T10:37:24.434Z,6.80
2023-02-21T10:38:24.314Z,6.80
2023-02-21T10:39:24.333Z,7.60
2023-02-21T10:40:24.296Z,6.30
2023-02-21T10:41:24.279Z,7.80
2023-02-21T10:42:24.284Z,7.00
2023-02-21T10:43:24.300Z,6.70
2023-02-21T10:44:24.276Z,6.70
2023-02-21T10:45:24.277Z,4.90
2023-02-21T10:46:24.294Z,6.40
2023-02-21T10:47:24.208Z,5.50
2023-02-21T10:48:24.207Z,6.60
2023-02-21T10:49:24.213Z,5.80
2023-02-21T10:50:24.221Z,5.20
2023-02-21T10:51:24.182Z,5.80
2023-02-21T10:52:24.171Z,5.90
2023-02-21T10:53:24.331Z,5.60
2023-02-21T10:54:24.155Z,5.90
2023-02-21T10:55:32.874Z,5.60
2023-02-21T10:56:25.118Z,5.60
2023-02-21T10:57:24.124Z,6.40
2023-02-21T10:58:24.084Z,5.80
2023-02-21T10:59:24.098Z,5.20
2023-02-21T11:00:24.081Z,5.40
2023-02-21T11:01:24.098Z,5.60
2023-02-21T11:02:24.119Z,5.70
2023-02-21T11:03:24.084Z,6.10
2023-02-21T11:04:24.028Z,5.00
2023-02-21T11:05:24.029Z,5.50
2023-02-21T11:06:24.012Z,5.20
2023-02-21T11:07:24.045Z,5.70
2023-02-21T11:08:24.044Z,6.10
2023-02-21T11:09:24.040Z,5.40
2023-02-21T11:10:23.972Z,5.50
2023-02-21T11:11:23.966Z,5.90
2023-02-21T11:12:23.970Z,5.40
2023-02-21T11:13:23.947Z,6.00
2023-02-21T11:14:23.951Z,5.50
2023-02-21T11:15:23.923Z,5.80
2023-02-21T11:16:23.905Z,5.80
2023-02-21T11:17:23.928Z,5.70
2023-02-21T11:18:23.883Z,5.90
2023-02-21T11:19:23.882Z,5.50
2023-02-21T11:20:23.856Z,5.30
2023-02-21T11:21:23.844Z,5.70
2023-02-21T11:22:23.844Z,5.40
2023-02-21T11:23:23.828Z,5.80
2023-02-21T11:24:23.822Z,6.40
2023-02-21T11:25:23.838Z,5.90
2023-02-21T11:26:23.784Z,5.30
2023-02-21T11:27:23.807Z,5.20
2023-02-21T11:28:23.796Z,5.50
2023-02-21T11:29:23.765Z,5.20
2023-02-21T11:30:23.822Z,5.30
2023-02-21T11:31:23.795Z,6.00
2023-02-21T11:32:23.741Z,5.60
2023-02-21T11:33:23.736Z,4.40
2023-02-21T11:34:23.693Z,5.20
2023-02-21T11:35:23.697Z,4.80
2023-02-21T11:36:23.714Z,5.00
2023-02-21T11:37:23.682Z,4.80
2023-02-21T11:38:23.671Z,5.20
2023-02-21T11:39:23.768Z,4.80
2023-02-21T11:40:23.639Z,5.20
2023-02-21T11:41:23.656Z,4.90
2023-02-21T11:42:23.644Z,5.30
2023-02-21T11:43:23.612Z,4.50
2023-02-21T11:44:23.584Z,5.40
2023-02-21T11:45:23.578Z,4.70
2023-02-21T11:46:23.624Z,4.60
2023-02-21T11:47:23.574Z,4.70
2023-02-21T11:48:23.571Z,4.50
2023-02-21T11:49:23.554Z,5.20
2023-02-21T11:50:23.524Z,4.90
2023-02-21T11:51:23.523Z,4.80
2023-02-21T11:52:23.527Z,4.90
2023-02-21T11:53:23.489Z,5.00
2023-02-21T11:54:23.482Z,5.00
2023-02-21T11:55:26.156Z,5.10
2023-02-21T11:56:23.485Z,5.00
2023-02-21T11:57:23.496Z,5.20
2023-02-21T11:58:23.437Z,5.00
2023-02-21T11:59:23.422Z,4.80
2023-02-21T12:00:23.448Z,4.60
2023-02-21T12:01:23.424Z,4.50
2023-02-21T12:02:23.422Z,4.50
2023-02-21T12:03:23.372Z,4.80
2023-02-21T12:04:23.405Z,4.20
2023-02-21T12:05:23.398Z,4.40
2023-02-21T12:06:23.352Z,4.70
2023-02-21T12:07:23.347Z,5.20
2023-02-21T12:08:23.319Z,4.60
2023-02-21T12:09:23.346Z,4.50
2023-02-21T12:10:23.325Z,4.40
2023-02-21T12:11:23.308Z,5.30
2023-02-21T12:12:23.279Z,4.20
2023-02-21T12:13:23.276Z,4.80
2023-02-21T12:14:23.269Z,4.50
2023-02-21T12:15:23.272Z,4.60
2023-02-21T12:16:23.238Z,4.30
2023-02-21T12:17:23.209Z,4.10
2023-02-21T12:18:23.218Z,3.60
2023-02-21T12:19:23.207Z,4.60
2023-02-21T12:20:23.209Z,3.50
2023-02-21T12:21:23.190Z,3.70
2023-02-21T12:22:23.178Z,3.00
2023-02-21T12:23:23.137Z,4.20
2023-02-21T12:24:23.154Z,4.00
2023-02-21T12:25:23.148Z,3.70
2023-02-21T12:26:23.125Z,3.20
2023-02-21T12:27:23.117Z,3.70
2023-02-21T12:28:23.135Z,3.60
2023-02-21T12:29:23.126Z,3.20
2023-02-21T12:30:23.133Z,3.40
2023-02-21T12:31:23.257Z,3.40
2023-02-21T12:32:23.140Z,3.20
2023-02-21T12:33:25.069Z,3.30
2023-02-21T12:34:23.066Z,3.70
2023-02-21T12:35:23.081Z,3.50
2023-02-21T12:36:23.007Z,3.90
2023-02-21T12:37:23.005Z,3.30
2023-02-21T12:38:23.004Z,3.20
2023-02-21T12:39:23.004Z,3.50
2023-02-21T12:40:22.988Z,3.10
2023-02-21T12:41:22.970Z,3.50
2023-02-21T12:42:22.929Z,3.60
2023-02-21T12:43:22.922Z,3.50
2023-02-21T12:44:22.940Z,3.60
2023-02-21T12:45:22.968Z,3.70
2023-02-21T12:46:22.991Z,3.30
2023-02-21T12:47:22.914Z,3.50
2023-02-21T12:48:22.882Z,3.40
2023-02-21T12:49:22.853Z,3.50
2023-02-21T12:50:22.861Z,3.60
2023-02-21T12:51:22.846Z,3.40
2023-02-21T12:52:22.812Z,3.20
2023-02-21T12:53:22.834Z,2.90
2023-02-21T12:54:22.823Z,2.60
2023-02-21T12:55:22.812Z,2.40
2023-02-21T12:56:22.791Z,2.70
2023-02-21T12:57:22.774Z,2.80
2023-02-21T12:58:22.758Z,3.20
2023-02-21T12:59:22.770Z,3.10
2023-02-21T13:00:22.780Z,3.20
2023-02-21T13:01:23.030Z,3.30
2023-02-21T13:02:22.743Z,3.00
2023-02-21T13:03:22.728Z,3.50
2023-02-21T13:04:22.725Z,2.80
2023-02-21T13:05:22.673Z,3.00
2023-02-21T13:06:22.670Z,2.70
2023-02-21T13:07:22.680Z,2.70
2023-02-21T13:08:22.661Z,2.70
2023-02-21T13:09:22.658Z,2.60
2023-02-21T13:10:22.627Z,2.40
2023-02-21T13:11:22.629Z,2.80
2023-02-21T13:12:22.610Z,2.60
2023-02-21T13:13:22.628Z,2.70
2023-02-21T13:14:22.602Z,2.50
2023-02-21T13:15:22.593Z,2.70
2023-02-21T13:16:22.643Z,2.80
2023-02-21T13:17:22.576Z,2.50